Time;durP1;ratioP1;P1;durP2;ratioP2;P2;SDS_P1;SDS_P2;PMS_P1;PMS_P2;Temp;Humidity;BMP_temperature;BMP_pressure;BME280_temperature;BME280_humidity;BME280_pressure;Samples;Min_cycle;Max_cycle;Signal;HPM_P1;HPM_P2
2022/11/13 00:00:53;;;;;;;25.15;21.25;;;6.20;99.90;;;;;;4974871;28;20058;-77
2022/11/13 00:03:19;;;;;;;29.77;23.95;;;6.20;99.90;;;;;;4973896;28;20050;-77
2022/11/13 00:05:44;;;;;;;27.15;21.98;;;6.20;99.90;;;;;;4958600;28;20552;-77
2022/11/13 00:08:10;;;;;;;27.40;22.20;;;6.20;99.90;;;;;;4974327;28;20051;-77
2022/11/13 00:10:36;;;;;;;28.45;23.73;;;6.20;99.90;;;;;;4974282;28;20105;-78
2022/11/13 00:13:02;;;;;;;28.35;22.55;;;6.10;99.90;;;;;;4974289;28;20053;-77
2022/11/13 00:15:27;;;;;;;26.02;22.05;;;6.10;99.90;;;;;;4974846;28;20051;-77
2022/11/13 00:17:53;;;;;;;29.60;22.90;;;6.10;99.90;;;;;;4973804;28;20058;-79
2022/11/13 00:20:19;;;;;;;31.95;24.48;;;6.40;99.90;;;;;;4955913;28;20134;-77
2022/11/13 00:22:45;;;;;;;32.22;26.27;;;6.20;99.90;;;;;;4954710;28;20058;-77
2022/11/13 00:25:11;;;;;;;35.15;27.63;;;6.20;99.90;;;;;;4968704;28;20394;-78
2022/11/13 00:27:36;;;;;;;32.75;26.85;;;6.20;99.90;;;;;;4960904;28;20046;-77
2022/11/13 00:30:04;;;;;;;36.40;26.40;;;7.00;99.90;;;;;;4977819;28;20514;-77
2022/11/13 00:32:30;;;;;;;33.35;28.33;;;6.20;99.90;;;;;;4983540;28;20051;-77
2022/11/13 00:34:55;;;;;;;162.88;97.60;;;6.20;99.90;;;;;;4973728;28;20042;-78
2022/11/13 00:37:21;;;;;;;241.27;151.35;;;6.30;99.90;;;;;;4974089;28;20483;-77
2022/11/13 00:39:46;;;;;;;138.55;86.78;;;6.30;99.90;;;;;;4987056;28;20054;-77
2022/11/13 00:42:12;;;;;;;279.50;166.45;;;6.40;99.90;;;;;;4973952;28;20055;-78
2022/11/13 00:44:38;;;;;;;129.15;78.10;;;6.30;99.90;;;;;;4982495;28;20058;-77
2022/11/13 00:47:05;;;;;;;70.70;46.63;;;6.30;99.90;;;;;;4937407;29;20372;-77
2022/11/13 00:49:31;;;;;;;66.93;45.10;;;6.30;99.90;;;;;;4986620;28;20047;-77
2022/11/13 00:51:59;;;;;;;52.97;36.88;;;6.30;99.90;;;;;;4970745;28;20055;-77
2022/11/13 00:54:24;;;;;;;69.13;43.78;;;6.40;99.90;;;;;;4946888;28;20061;-78
2022/11/13 00:56:50;;;;;;;65.78;43.50;;;6.30;99.90;;;;;;4987409;28;20050;-77
2022/11/13 00:59:16;;;;;;;60.63;41.72;;;6.30;99.90;;;;;;4966158;28;20495;-77
2022/11/13 01:01:41;;;;;;;69.82;47.28;;;6.30;99.90;;;;;;4966987;28;20081;-77
2022/11/13 01:04:07;;;;;;;60.30;41.55;;;6.30;99.90;;;;;;4968102;28;20077;-78
2022/11/13 01:06:33;;;;;;;36.83;27.17;;;6.50;99.90;;;;;;4948944;28;20490;-77
2022/11/13 01:08:59;;;;;;;35.42;26.35;;;6.30;99.90;;;;;;4975532;28;20096;-77
2022/11/13 01:11:27;;;;;;;29.27;23.25;;;6.30;99.90;;;;;;5000878;28;20113;-77
2022/11/13 01:13:53;;;;;;;29.88;23.92;;;6.30;99.90;;;;;;4973117;28;20403;-77
2022/11/13 01:16:22;;;;;;;26.25;20.58;;;6.20;99.90;;;;;;4973572;28;20066;-77
2022/11/13 01:18:47;;;;;;;29.63;21.52;;;6.30;99.90;;;;;;4956242;28;20122;-77
2022/11/13 01:21:20;;;;;;;30.05;23.92;;;6.40;99.90;;;;;;4973494;28;20097;-79
2022/11/13 01:23:46;;;;;;;34.00;26.00;;;6.20;99.90;;;;;;4956695;28;20047;-77
2022/11/13 01:26:15;;;;;;;28.23;22.00;;;6.10;99.90;;;;;;4973211;28;20133;-77
2022/11/13 01:28:42;;;;;;;40.25;29.50;;;6.10;99.90;;;;;;4972418;28;20129;-77
2022/11/13 01:31:11;;;;;;;29.38;23.17;;;6.10;99.90;;;;;;4973808;28;20051;-77
2022/11/13 01:33:37;;;;;;;33.03;25.30;;;6.10;99.90;;;;;;4966496;28;20506;-77
2022/11/13 01:36:07;;;;;;;30.60;24.45;;;6.10;99.90;;;;;;4965791;28;20055;-77
2022/11/13 01:38:34;;;;;;;27.85;21.85;;;6.10;99.90;;;;;;4958748;28;20471;-77
2022/11/13 01:41:00;;;;;;;28.13;21.65;;;6.10;99.90;;;;;;4972074;28;20543;-77
2022/11/13 01:43:31;;;;;;;28.30;21.08;;;6.10;99.90;;;;;;4972926;28;20169;-77
2022/11/13 01:45:57;;;;;;;26.17;20.70;;;6.10;99.90;;;;;;4967131;28;20495;-77
2022/11/13 01:48:27;;;;;;;28.00;22.17;;;6.10;99.90;;;;;;4948661;28;20065;-77
2022/11/13 01:50:53;;;;;;;29.58;22.83;;;6.00;99.90;;;;;;4961681;28;20443;-77
2022/11/13 01:53:20;;;;;;;32.28;24.45;;;6.00;99.90;;;;;;4970251;28;20051;-78
2022/11/13 01:55:46;;;;;;;30.50;22.85;;;6.00;99.90;;;;;;4971652;28;20577;-77
2022/11/13 01:58:13;;;;;;;30.63;23.77;;;6.00;99.90;;;;;;4956661;28;20047;-77
2022/11/13 02:00:38;;;;;;;28.48;22.15;;;6.30;99.90;;;;;;4969848;28;20059;-77
2022/11/13 02:03:04;;;;;;;30.08;23.23;;;6.20;99.90;;;;;;4974686;28;20051;-76
2022/11/13 02:05:30;;;;;;;29.23;22.92;;;6.00;99.90;;;;;;4969975;28;20126;-77
2022/11/13 02:07:56;;;;;;;31.30;24.30;;;6.00;99.90;;;;;;4969695;28;20499;-77
2022/11/13 02:10:22;;;;;;;29.08;23.92;;;6.00;99.90;;;;;;4976318;28;20479;-77
2022/11/13 02:12:50;;;;;;;29.42;23.80;;;6.00;99.90;;;;;;4976161;28;20059;-78
2022/11/13 02:15:22;;;;;;;31.05;24.38;;;6.00;99.90;;;;;;4976268;28;20046;-78
2022/11/13 02:17:53;;;;;;;29.27;22.52;;;6.00;99.90;;;;;;4976699;28;20046;-78
2022/11/13 02:20:44;;;;;;;29.52;21.95;;;5.90;99.90;;;;;;4976223;28;20447;-77
2022/11/13 02:23:24;;;;;;;31.58;24.52;;;5.90;99.90;;;;;;4976763;28;20066;-76
2022/11/13 02:25:52;;;;;;;29.13;22.52;;;5.90;99.90;;;;;;4976391;28;20057;-77
2022/11/13 02:28:18;;;;;;;29.67;23.35;;;5.90;99.90;;;;;;4976415;28;20058;-77
2022/11/13 02:30:43;;;;;;;28.77;23.15;;;6.00;99.90;;;;;;4979863;28;20050;-77
2022/11/13 02:33:31;;;;;;;30.50;22.33;;;5.90;99.90;;;;;;5001141;28;20062;-77
2022/11/13 02:35:58;;;;;;;26.90;21.80;;;5.90;99.90;;;;;;4975814;28;20054;-77
2022/11/13 02:38:24;;;;;;;29.00;23.67;;;5.90;99.90;;;;;;4992227;28;20047;-77
2022/11/13 02:40:49;;;;;;;28.45;22.75;;;5.80;99.90;;;;;;4975710;28;20051;-77
2022/11/13 02:43:15;;;;;;;28.05;22.63;;;5.80;99.90;;;;;;4976226;28;20050;-77
2022/11/13 02:45:41;;;;;;;33.03;25.02;;;5.80;99.90;;;;;;4962982;28;20043;-77
2022/11/13 02:48:06;;;;;;;34.72;26.80;;;6.10;99.90;;;;;;4975174;28;20049;-78
2022/11/13 02:50:34;;;;;;;34.05;25.88;;;5.70;99.90;;;;;;4977264;28;20047;-77
2022/11/13 02:53:00;;;;;;;28.98;23.67;;;5.70;99.90;;;;;;4975167;28;20380;-77
2022/11/13 02:55:26;;;;;;;28.98;23.27;;;5.70;99.90;;;;;;4944085;28;20051;-77
2022/11/13 02:57:51;;;;;;;31.85;24.70;;;5.70;99.90;;;;;;4975135;28;20046;-78
2022/11/13 03:00:17;;;;;;;27.98;23.38;;;5.60;99.90;;;;;;4975895;28;20054;-77
2022/11/13 03:02:43;;;;;;;28.77;23.80;;;5.60;99.90;;;;;;4975916;28;20054;-77
2022/11/13 03:05:09;;;;;;;28.85;22.90;;;5.60;99.90;;;;;;4974993;28;20046;-77
2022/11/13 03:07:34;;;;;;;28.15;23.42;;;5.60;99.90;;;;;;4964787;28;20484;-77
2022/11/13 03:10:00;;;;;;;27.98;23.58;;;5.60;99.90;;;;;;4957856;28;20097;-77
2022/11/13 03:12:26;;;;;;;28.33;22.17;;;5.60;99.90;;;;;;4959132;28;20054;-77
2022/11/13 03:14:51;;;;;;;28.58;23.10;;;5.60;99.90;;;;;;4958621;28;20082;-77
2022/11/13 03:17:17;;;;;;;31.25;24.55;;;5.60;99.90;;;;;;4975520;28;20050;-77
2022/11/13 03:19:43;;;;;;;30.05;23.90;;;5.60;99.90;;;;;;4973686;28;20047;-77
2022/11/13 03:22:08;;;;;;;28.30;22.27;;;5.60;99.90;;;;;;4962511;28;20057;-77
2022/11/13 03:24:34;;;;;;;30.63;22.92;;;5.60;99.90;;;;;;4975267;28;20047;-77
2022/11/13 03:27:00;;;;;;;31.00;23.27;;;5.60;99.90;;;;;;4974830;28;20051;-77
2022/11/13 03:29:25;;;;;;;31.77;23.55;;;5.70;99.90;;;;;;4974864;28;20059;-77
2022/11/13 03:31:51;;;;;;;32.35;24.08;;;5.70;99.90;;;;;;4972565;28;20047;-77
2022/11/13 03:34:17;;;;;;;28.42;23.63;;;5.60;99.90;;;;;;4963224;28;20054;-77
2022/11/13 03:36:42;;;;;;;29.13;22.17;;;5.60;99.90;;;;;;4958581;28;20479;-77
2022/11/13 03:39:08;;;;;;;26.30;21.23;;;5.60;99.90;;;;;;4975317;28;20201;-77
2022/11/13 03:41:34;;;;;;;26.88;20.90;;;5.60;99.90;;;;;;4976377;28;20479;-77
2022/11/13 03:44:00;;;;;;;27.30;22.10;;;5.50;99.90;;;;;;4958432;28;20047;-77
2022/11/13 03:46:25;;;;;;;24.02;18.77;;;5.50;99.90;;;;;;4975031;28;20439;-77
2022/11/13 03:48:51;;;;;;;30.52;24.42;;;5.70;99.90;;;;;;4974161;28;20050;-77
2022/11/13 03:51:16;;;;;;;30.45;22.52;;;5.50;99.90;;;;;;4974246;28;20178;-78
2022/11/13 03:53:42;;;;;;;28.38;21.85;;;5.60;99.90;;;;;;4958878;28;20042;-77
2022/11/13 03:56:08;;;;;;;27.25;21.50;;;5.50;99.90;;;;;;4944535;28;20480;-77
2022/11/13 03:58:34;;;;;;;25.77;20.67;;;5.60;99.90;;;;;;4958325;28;20038;-77
2022/11/13 04:00:59;;;;;;;26.52;21.75;;;5.50;99.90;;;;;;4974912;28;20042;-77
2022/11/13 04:03:28;;;;;;;25.77;21.20;;;5.50;99.90;;;;;;4973699;28;20058;-77
2022/11/13 04:05:54;;;;;;;30.35;24.02;;;5.50;99.90;;;;;;4974568;28;20055;-77
2022/11/13 04:08:20;;;;;;;28.58;22.20;;;5.40;99.90;;;;;;4973889;28;20050;-77
2022/11/13 04:10:46;;;;;;;26.65;21.13;;;5.60;99.90;;;;;;4961578;28;20137;-77
2022/11/13 04:13:11;;;;;;;26.88;21.00;;;5.40;99.90;;;;;;4974136;28;20224;-77
2022/11/13 04:15:37;;;;;;;24.92;20.42;;;5.40;99.90;;;;;;4974295;28;20193;-77
2022/11/13 04:18:03;;;;;;;29.17;22.83;;;5.30;99.90;;;;;;4973342;28;20054;-77
2022/11/13 04:20:29;;;;;;;31.17;24.25;;;5.30;99.90;;;;;;4975470;28;20125;-78
2022/11/13 04:22:55;;;;;;;31.50;24.42;;;5.30;99.90;;;;;;4974198;28;20487;-77
2022/11/13 04:25:22;;;;;;;27.40;20.60;;;5.30;99.90;;;;;;4973625;28;20078;-77
2022/11/13 04:27:54;;;;;;;25.25;20.63;;;5.30;99.90;;;;;;4974208;28;20050;-77
2022/11/13 04:30:20;;;;;;;28.67;22.75;;;5.30;99.90;;;;;;4976765;28;20505;-78
2022/11/13 04:32:46;;;;;;;29.10;23.42;;;5.30;99.90;;;;;;4975468;28;20078;-77
2022/11/13 04:35:11;;;;;;;29.23;22.63;;;5.60;99.90;;;;;;4974498;28;20505;-77
2022/11/13 04:37:37;;;;;;;28.55;22.65;;;5.30;99.90;;;;;;4941804;28;20043;-77
2022/11/13 04:40:04;;;;;;;26.33;20.23;;;5.50;99.90;;;;;;4974232;28;20101;-77
2022/11/13 04:42:47;;;;;;;32.00;24.13;;;5.20;99.90;;;;;;4957891;28;20054;-77
2022/11/13 04:45:18;;;;;;;35.00;25.70;;;5.20;99.90;;;;;;4973636;28;20054;-78
2022/11/13 04:47:44;;;;;;;40.20;29.50;;;5.20;99.90;;;;;;4973987;28;20395;-77
2022/11/13 04:50:11;;;;;;;38.13;28.58;;;5.80;99.90;;;;;;4973201;28;20387;-77
2022/11/13 04:52:37;;;;;;;34.83;27.33;;;5.20;99.90;;;;;;4973504;28;20510;-77
2022/11/13 04:55:03;;;;;;;39.78;29.77;;;5.70;99.90;;;;;;4973700;28;20050;-77
2022/11/13 04:57:29;;;;;;;40.28;29.13;;;5.20;99.90;;;;;;4973568;28;20048;-77
2022/11/13 04:59:54;;;;;;;35.58;27.02;;;5.20;99.90;;;;;;4943967;28;20130;-77
2022/11/13 05:02:22;;;;;;;38.30;27.88;;;5.60;99.90;;;;;;4973901;28;20054;-78
2022/11/13 05:04:48;;;;;;;40.75;28.38;;;5.20;99.90;;;;;;4953094;28;20504;-77
2022/11/13 05:07:14;;;;;;;28.55;22.23;;;5.30;99.90;;;;;;4947203;28;20123;-78
2022/11/13 05:09:39;;;;;;;28.63;23.67;;;5.80;99.90;;;;;;4959462;28;20081;-77
2022/11/13 05:12:06;;;;;;;32.58;25.25;;;5.00;99.90;;;;;;4974491;28;20054;-77
2022/11/13 05:14:37;;;;;;;43.85;29.42;;;5.00;99.90;;;;;;4973454;28;20368;-78
2022/11/13 05:17:04;;;;;;;35.80;26.25;;;5.00;99.90;;;;;;4960515;28;20671;-78
2022/11/13 05:19:31;;;;;;;43.53;31.83;;;5.00;99.90;;;;;;4969018;28;20055;-77
2022/11/13 05:21:57;;;;;;;37.38;28.48;;;4.90;99.90;;;;;;4972318;28;20047;-77
2022/11/13 05:24:23;;;;;;;33.33;25.38;;;4.90;99.90;;;;;;4983884;28;20057;-77
2022/11/13 05:26:49;;;;;;;37.45;27.05;;;4.90;99.90;;;;;;4976665;28;20081;-77
2022/11/13 05:29:15;;;;;;;31.98;25.33;;;4.90;99.90;;;;;;4974058;28;20082;-78
2022/11/13 05:31:40;;;;;;;29.98;23.35;;;4.90;99.90;;;;;;4959204;28;20055;-77
2022/11/13 05:34:06;;;;;;;32.35;25.45;;;4.90;99.90;;;;;;4973516;28;20490;-78
2022/11/13 05:36:32;;;;;;;30.50;23.77;;;5.40;99.90;;;;;;4972345;28;20052;-77
2022/11/13 05:38:58;;;;;;;29.92;23.23;;;4.90;99.90;;;;;;4968956;28;20043;-78
2022/11/13 05:41:24;;;;;;;31.80;24.13;;;4.90;99.90;;;;;;4964317;28;20065;-77
2022/11/13 05:43:50;;;;;;;31.13;23.55;;;4.90;99.90;;;;;;4972363;28;20055;-77
2022/11/13 05:46:17;;;;;;;33.22;24.65;;;5.00;99.90;;;;;;4973103;28;20042;-77
2022/11/13 05:48:44;;;;;;;31.27;24.05;;;4.80;99.90;;;;;;4971763;28;20518;-77
2022/11/13 05:51:13;;;;;;;35.28;25.92;;;4.70;99.90;;;;;;4972796;28;20085;-78
2022/11/13 05:53:40;;;;;;;30.48;24.20;;;4.70;99.90;;;;;;4972990;28;20046;-77
2022/11/13 05:56:09;;;;;;;32.03;25.00;;;4.80;99.90;;;;;;4972874;28;20086;-77
2022/11/13 05:58:35;;;;;;;31.77;23.42;;;4.80;99.90;;;;;;4971765;28;20050;-78
2022/11/13 06:01:32;;;;;;;31.38;24.52;;;4.80;99.90;;;;;;4972996;28;20078;-78
2022/11/13 06:03:59;;;;;;;32.70;24.10;;;4.80;99.90;;;;;;4952879;28;20067;-78
2022/11/13 06:06:26;;;;;;;36.13;27.10;;;4.70;99.90;;;;;;4969166;28;20058;-77
2022/11/13 06:08:53;;;;;;;40.25;27.20;;;4.70;99.90;;;;;;4972896;28;20125;-78
2022/11/13 06:11:22;;;;;;;31.60;24.13;;;4.70;99.90;;;;;;4973914;28;20102;-78
2022/11/13 06:13:49;;;;;;;37.70;26.98;;;4.70;99.90;;;;;;4977138;28;20047;-78
2022/11/13 06:16:17;;;;;;;31.02;23.75;;;4.70;99.90;;;;;;4967116;28;20058;-79
2022/11/13 06:18:44;;;;;;;35.72;26.45;;;4.70;99.90;;;;;;4974645;28;20501;-78
2022/11/13 06:21:13;;;;;;;38.67;29.05;;;4.70;99.90;;;;;;4972741;28;20058;-79
2022/11/13 06:23:39;;;;;;;40.78;29.05;;;4.70;99.90;;;;;;4971849;28;20491;-78
2022/11/13 06:26:17;;;;;;;34.60;26.25;;;4.70;99.90;;;;;;4972864;28;20051;-78
2022/11/13 06:28:44;;;;;;;31.55;24.75;;;4.80;99.90;;;;;;4971523;28;20058;-78
2022/11/13 06:31:17;;;;;;;27.52;21.45;;;4.70;99.90;;;;;;4972496;28;20062;-78
2022/11/13 06:33:44;;;;;;;24.73;19.27;;;4.70;99.90;;;;;;4971510;28;20066;-78
2022/11/13 06:36:12;;;;;;;21.33;17.58;;;4.60;99.90;;;;;;4972590;28;20137;-79
2022/11/13 06:38:39;;;;;;;24.08;17.52;;;4.60;99.90;;;;;;4972161;28;20086;-78
2022/11/13 06:41:06;;;;;;;24.42;18.30;;;4.50;99.90;;;;;;4961319;28;20055;-78
2022/11/13 06:43:32;;;;;;;23.88;18.23;;;4.50;99.90;;;;;;4958177;28;20047;-79
2022/11/13 06:45:58;;;;;;;32.63;22.63;;;4.60;99.90;;;;;;4982581;28;20387;-78
2022/11/13 06:48:24;;;;;;;36.30;25.70;;;4.40;99.90;;;;;;4965991;28;20398;-79
2022/11/13 06:50:50;;;;;;;38.72;27.40;;;4.40;99.90;;;;;;4976463;28;20051;-78
2022/11/13 06:53:16;;;;;;;28.75;22.35;;;4.40;99.90;;;;;;4962141;28;20520;-79
2022/11/13 06:55:48;;;;;;;31.45;23.17;;;4.70;99.90;;;;;;4965214;28;20484;-78
2022/11/13 06:58:14;;;;;;;26.88;21.55;;;4.40;99.90;;;;;;4989570;28;20134;-78
2022/11/13 07:00:41;;;;;;;22.63;18.15;;;4.40;99.90;;;;;;4950249;29;20055;-78
2022/11/13 07:03:18;;;;;;;26.98;21.23;;;4.40;99.90;;;;;;4959288;28;20050;-78
2022/11/13 07:05:44;;;;;;;26.05;20.80;;;4.40;99.90;;;;;;4965106;28;20087;-78
2022/11/13 07:08:11;;;;;;;31.10;23.80;;;4.40;99.90;;;;;;4972690;28;20508;-78
2022/11/13 07:10:37;;;;;;;29.50;23.23;;;4.40;99.90;;;;;;4975780;28;20053;-79
2022/11/13 07:13:03;;;;;;;34.15;25.75;;;4.50;99.90;;;;;;4973627;28;20046;-78
2022/11/13 07:15:28;;;;;;;32.13;24.60;;;4.50;99.90;;;;;;4963961;28;20043;-77
2022/11/13 07:17:54;;;;;;;33.00;25.08;;;4.70;99.90;;;;;;4974819;28;20047;-79
2022/11/13 07:20:20;;;;;;;30.55;23.33;;;4.60;99.90;;;;;;4991138;28;20042;-78
2022/11/13 07:22:45;;;;;;;32.33;24.85;;;4.60;99.90;;;;;;4976690;28;20507;-78
2022/11/13 07:25:11;;;;;;;29.40;22.67;;;4.80;99.90;;;;;;4972708;28;20047;-78
2022/11/13 07:27:37;;;;;;;27.27;21.15;;;4.90;99.90;;;;;;4976476;28;20053;-78
2022/11/13 07:30:03;;;;;;;29.55;23.55;;;4.70;99.90;;;;;;4972899;28;20138;-78
2022/11/13 07:32:28;;;;;;;27.15;21.15;;;4.70;99.90;;;;;;4956189;28;20496;-78
2022/11/13 07:34:54;;;;;;;28.60;21.92;;;4.80;99.90;;;;;;4968278;28;20065;-78
2022/11/13 07:37:20;;;;;;;28.13;21.83;;;5.10;99.90;;;;;;4955732;28;20074;-78
2022/11/13 07:39:45;;;;;;;31.35;24.27;;;4.80;99.90;;;;;;4966934;28;20055;-78
2022/11/13 07:42:12;;;;;;;26.20;22.00;;;4.90;99.90;;;;;;4974869;28;20043;-78
2022/11/13 07:44:37;;;;;;;30.50;23.50;;;4.80;99.90;;;;;;4975377;28;20098;-77
2022/11/13 07:47:03;;;;;;;31.92;25.48;;;4.80;99.90;;;;;;4973121;28;20062;-78
2022/11/13 07:49:29;;;;;;;29.77;23.10;;;4.90;99.90;;;;;;4969380;28;20051;-77
2022/11/13 07:51:54;;;;;;;31.20;25.10;;;4.90;99.90;;;;;;4955789;28;20547;-77
2022/11/13 07:54:20;;;;;;;35.40;29.27;;;4.90;99.90;;;;;;4952339;28;20050;-79
2022/11/13 07:56:46;;;;;;;35.25;29.48;;;5.00;99.90;;;;;;4961484;28;20050;-78
2022/11/13 07:59:12;;;;;;;32.30;26.30;;;5.30;99.90;;;;;;4946021;28;20074;-78
2022/11/13 08:01:38;;;;;;;32.45;24.23;;;5.10;99.90;;;;;;4972466;28;20065;-77
2022/11/13 08:04:04;;;;;;;34.22;28.30;;;5.10;99.90;;;;;;4958112;28;20050;-77
2022/11/13 08:06:29;;;;;;;33.75;28.10;;;5.20;99.90;;;;;;4957362;28;20043;-79
2022/11/13 08:08:55;;;;;;;32.33;26.95;;;5.20;99.90;;;;;;4965929;28;20039;-78
2022/11/13 08:11:21;;;;;;;32.22;25.30;;;5.20;99.90;;;;;;4987983;28;20406;-78
2022/11/13 08:13:47;;;;;;;32.03;23.90;;;5.30;99.90;;;;;;4982227;28;20137;-77
2022/11/13 08:16:13;;;;;;;28.17;23.45;;;5.30;99.90;;;;;;4997014;28;20073;-77
2022/11/13 08:18:38;;;;;;;28.98;23.88;;;5.40;99.90;;;;;;4978771;28;20104;-77
2022/11/13 08:21:05;;;;;;;28.90;22.10;;;5.40;99.90;;;;;;4999153;28;20080;-77
2022/11/13 08:23:31;;;;;;;28.70;22.23;;;5.50;99.90;;;;;;4954136;28;20039;-76
2022/11/13 08:25:57;;;;;;;27.05;21.88;;;5.50;99.90;;;;;;4964263;28;20051;-77
2022/11/13 08:28:23;;;;;;;28.17;23.38;;;5.60;99.90;;;;;;4974713;28;20502;-78
2022/11/13 08:30:49;;;;;;;29.80;23.02;;;5.70;99.90;;;;;;4975598;28;20067;-77
2022/11/13 08:33:15;;;;;;;25.35;22.50;;;5.90;99.90;;;;;;4957426;28;20054;-77
2022/11/13 08:35:40;;;;;;;30.25;25.35;;;6.00;99.90;;;;;;4957410;28;20050;-77
2022/11/13 08:38:08;;;;;;;27.30;22.35;;;6.30;99.90;;;;;;4963653;28;20051;-76
2022/11/13 08:40:34;;;;;;;25.35;21.02;;;6.50;99.90;;;;;;4970760;28;20113;-76
2022/11/13 08:43:04;;;;;;;27.17;22.90;;;6.90;99.90;;;;;;4965535;28;20059;-77
2022/11/13 08:45:29;;;;;;;23.92;19.55;;;6.70;99.90;;;;;;4954408;28;20053;-77
2022/11/13 08:48:03;;;;;;;22.05;19.05;;;6.80;99.90;;;;;;5002123;28;20042;-77
2022/11/13 08:50:30;;;;;;;23.90;20.00;;;6.90;99.90;;;;;;4974486;28;20135;-76
2022/11/13 08:52:57;;;;;;;24.13;18.65;;;7.00;99.90;;;;;;4973500;28;20050;-76
2022/11/13 08:55:23;;;;;;;22.45;17.23;;;7.20;99.90;;;;;;4973654;28;20491;-76
2022/11/13 08:57:50;;;;;;;20.80;17.08;;;7.30;99.90;;;;;;4973173;28;20491;-78
2022/11/13 09:00:16;;;;;;;20.95;17.38;;;7.30;99.90;;;;;;4973981;28;20456;-76
2022/11/13 09:02:42;;;;;;;22.20;17.75;;;7.30;99.90;;;;;;4973556;28;20078;-76
2022/11/13 09:05:08;;;;;;;20.02;17.58;;;7.50;99.90;;;;;;4972921;28;20085;-76
2022/11/13 09:07:34;;;;;;;21.02;16.60;;;7.50;99.90;;;;;;4957454;28;20479;-76
2022/11/13 09:09:59;;;;;;;18.90;16.38;;;7.70;99.90;;;;;;4972678;28;20102;-76
2022/11/13 09:12:25;;;;;;;19.65;16.00;;;7.70;99.90;;;;;;4957353;28;20043;-76
2022/11/13 09:14:51;;;;;;;21.33;16.50;;;7.80;99.90;;;;;;4972945;28;20090;-77
2022/11/13 09:17:17;;;;;;;19.90;16.17;;;;;;;;;;4965715;28;20060;-77
2022/11/13 09:19:43;;;;;;;19.02;15.85;;;8.00;99.90;;;;;;4950556;28;20053;-76
2022/11/13 09:22:09;;;;;;;17.88;15.00;;;8.10;99.90;;;;;;4970121;28;20198;-76
2022/11/13 09:24:35;;;;;;;16.92;14.63;;;8.20;99.90;;;;;;4960842;28;20058;-77
2022/11/13 09:27:01;;;;;;;17.85;15.43;;;8.20;99.90;;;;;;4971648;28;20043;-76
2022/11/13 09:29:27;;;;;;;17.58;14.65;;;8.20;99.90;;;;;;4973843;28;20062;-77
2022/11/13 09:31:54;;;;;;;16.40;13.88;;;8.40;99.90;;;;;;4975431;28;20499;-76
2022/11/13 09:34:21;;;;;;;17.63;15.10;;;8.40;99.90;;;;;;4999762;28;20556;-77
2022/11/13 09:36:46;;;;;;;17.25;15.15;;;8.30;99.90;;;;;;4958496;28;20058;-77
2022/11/13 09:39:12;;;;;;;17.30;14.93;;;8.20;99.90;;;;;;4937687;28;20503;-77
2022/11/13 09:41:55;;;;;;;18.55;15.15;;;8.20;99.90;;;;;;4954115;28;20050;-76
2022/11/13 09:44:30;;;;;;;18.30;14.73;;;8.20;99.90;;;;;;4986068;28;20054;-77
2022/11/13 09:47:13;;;;;;;15.65;13.20;;;8.20;99.90;;;;;;4967592;28;20074;-76
2022/11/13 09:50:03;;;;;;;17.05;14.23;;;8.30;99.90;;;;;;4956210;28;20046;-77
2022/11/13 09:52:35;;;;;;;16.40;14.27;;;8.40;99.90;;;;;;4973009;28;20050;-77
2022/11/13 09:55:03;;;;;;;18.83;15.50;;;8.40;99.90;;;;;;4972572;28;20436;-76
2022/11/13 09:57:44;;;;;;;17.05;15.20;;;8.40;99.90;;;;;;4956918;28;20058;-77
2022/11/13 10:00:18;;;;;;;18.42;15.32;;;8.40;99.90;;;;;;4972899;28;20047;-77
2022/11/13 10:03:07;;;;;;;18.05;14.63;;;8.40;99.90;;;;;;4972627;28;20046;-77
2022/11/13 10:06:08;;;;;;;17.02;14.02;;;8.40;99.90;;;;;;4972622;28;20055;-77
2022/11/13 10:09:15;;;;;;;16.17;13.45;;;8.50;99.90;;;;;;4960928;28;20129;-77
2022/11/13 10:12:03;;;;;;;15.60;12.35;;;8.60;99.90;;;;;;4955327;28;20043;-77
2022/11/13 10:14:44;;;;;;;16.42;13.25;;;8.80;99.90;;;;;;4959018;28;20095;-77
2022/11/13 10:17:23;;;;;;;16.30;12.95;;;9.00;99.90;;;;;;4977012;28;20047;-77
2022/11/13 10:19:59;;;;;;;16.02;12.25;;;9.00;99.90;;;;;;4954837;28;20074;-77
2022/11/13 10:22:54;;;;;;;14.48;11.80;;;9.20;99.90;;;;;;4953602;28;20106;-76
2022/11/13 10:25:27;;;;;;;15.95;12.50;;;9.40;99.90;;;;;;4974463;28;20061;-76
2022/11/13 10:27:56;;;;;;;14.63;12.43;;;9.50;99.90;;;;;;4976373;28;20137;-76
2022/11/13 10:30:22;;;;;;;15.60;12.00;;;9.60;99.90;;;;;;4962103;28;20053;-77
2022/11/13 10:32:48;;;;;;;14.15;11.77;;;9.70;99.90;;;;;;4977377;28;20050;-78
2022/11/13 10:35:23;;;;;;;13.38;11.93;;;9.70;99.90;;;;;;4976094;28;20562;-77
2022/11/13 10:38:02;;;;;;;13.05;11.50;;;9.70;99.90;;;;;;4976355;28;20043;-76
2022/11/13 10:40:31;;;;;;;14.23;11.77;;;9.90;99.90;;;;;;4972571;28;20047;-77
2022/11/13 10:43:19;;;;;;;13.00;11.23;;;9.90;99.90;;;;;;4966288;28;20491;-77
2022/11/13 10:46:00;;;;;;;15.63;11.07;;;10.00;99.90;;;;;;4975361;28;20376;-77
2022/11/13 10:48:29;;;;;;;13.38;11.27;;;10.10;99.90;;;;;;4975037;28;20050;-77
2022/11/13 10:51:04;;;;;;;14.50;10.80;;;10.20;99.90;;;;;;4976315;28;20495;-77
2022/11/13 10:53:39;;;;;;;13.65;10.52;;;10.20;99.90;;;;;;4988828;28;20043;-77
2022/11/13 10:56:13;;;;;;;13.43;10.75;;;10.30;99.90;;;;;;4975801;28;20065;-77
2022/11/13 10:58:39;;;;;;;13.52;11.48;;;10.40;99.90;;;;;;4992316;28;20039;-77
2022/11/13 11:01:22;;;;;;;12.43;9.95;;;10.40;99.90;;;;;;4982043;28;20126;-76
2022/11/13 11:03:49;;;;;;;12.75;10.68;;;10.50;99.90;;;;;;4969060;28;20043;-76
2022/11/13 11:06:15;;;;;;;12.65;11.15;;;10.50;99.90;;;;;;4961528;28;20118;-77
2022/11/13 11:08:41;;;;;;;14.00;11.13;;;10.60;99.90;;;;;;4975456;28;20074;-77
2022/11/13 11:14:19;;;;;;;12.93;11.40;;;10.60;99.90;;;;;;4964897;28;20070;-77
2022/11/13 11:16:48;;;;;;;14.32;11.70;;;10.70;99.90;;;;;;4975993;28;20046;-77
2022/11/13 11:19:15;;;;;;;13.23;11.43;;;10.60;99.90;;;;;;4990571;28;20054;-78
2022/11/13 11:21:43;;;;;;;13.73;12.07;;;10.70;99.90;;;;;;4991548;28;20059;-77
2022/11/13 11:24:18;;;;;;;15.48;12.00;;;10.80;99.90;;;;;;4991508;28;20122;-76
2022/11/13 11:26:58;;;;;;;13.50;11.52;;;10.80;99.90;;;;;;4989407;28;20189;-77
2022/11/13 11:29:31;;;;;;;12.70;11.20;;;10.90;99.90;;;;;;4939700;28;20066;-77
2022/11/13 11:32:42;;;;;;;13.40;11.77;;;10.90;99.90;;;;;;4972961;28;20606;-77
2022/11/13 11:35:17;;;;;;;14.95;12.23;;;11.00;99.90;;;;;;4988966;28;20054;-76
2022/11/13 11:38:20;;;;;;;13.85;11.52;;;11.10;99.90;;;;;;4968290;28;20051;-78
2022/11/13 11:40:52;;;;;;;15.60;11.65;;;11.10;99.90;;;;;;4986487;28;20050;-78
2022/11/13 11:43:44;;;;;;;14.05;11.70;;;11.10;99.90;;;;;;4975144;28;20134;-76
2022/11/13 11:46:19;;;;;;;13.35;11.73;;;11.20;99.90;;;;;;4968985;28;20126;-76
2022/11/13 11:48:44;;;;;;;13.73;11.82;;;11.20;99.90;;;;;;4984098;28;20050;-77
2022/11/13 11:51:24;;;;;;;14.73;11.60;;;11.30;99.90;;;;;;4962041;28;20078;-76
2022/11/13 11:54:02;;;;;;;13.65;11.25;;;11.30;99.90;;;;;;4949458;28;20130;-77
2022/11/13 11:56:44;;;;;;;12.88;11.57;;;11.30;99.90;;;;;;4986551;28;20082;-77
2022/11/13 11:59:10;;;;;;;;;;;11.30;99.90;;;;;;4974874;28;20050;-76
2022/11/13 12:02:04;;;;;;;13.40;10.93;;;11.40;99.90;;;;;;4990395;28;20393;-77
2022/11/13 12:04:41;;;;;;;14.25;11.77;;;11.40;99.90;;;;;;4973978;28;20549;-76
2022/11/13 12:07:37;;;;;;;14.27;11.77;;;11.50;99.90;;;;;;4974765;28;20565;-77
2022/11/13 12:10:12;;;;;;;13.20;11.80;;;11.60;99.90;;;;;;4973851;28;20054;-76
2022/11/13 12:12:37;;;;;;;13.82;11.80;;;11.70;99.90;;;;;;4974768;28;20137;-75
2022/11/13 12:15:14;;;;;;;15.43;11.70;;;11.70;99.90;;;;;;4973965;28;20127;-77
2022/11/13 12:18:14;;;;;;;13.45;11.00;;;11.70;99.90;;;;;;4990651;28;20082;-77
2022/11/13 12:20:45;;;;;;;13.75;10.80;;;11.70;99.90;;;;;;4963664;28;20118;-77
2022/11/13 12:23:14;;;;;;;13.98;11.18;;;11.80;99.90;;;;;;4987256;28;20679;-77
2022/11/13 12:25:53;;;;;;;13.13;11.18;;;11.80;99.90;;;;;;4962492;28;20548;-77
2022/11/13 12:28:41;;;;;;;12.85;10.52;;;11.90;99.90;;;;;;5001386;28;20133;-77
2022/11/13 12:31:48;;;;;;;14.63;12.10;;;11.90;99.90;;;;;;4973626;28;20407;-76
2022/11/13 12:34:42;;;;;;;12.23;10.93;;;12.00;99.90;;;;;;4958324;28;20066;-77
2022/11/13 12:37:21;;;;;;;11.70;10.05;;;12.00;99.90;;;;;;4964993;28;20555;-76
2022/11/13 12:39:57;;;;;;;11.07;9.25;;;12.10;99.90;;;;;;4973782;28;20452;-77
2022/11/13 12:42:28;;;;;;;12.38;10.38;;;12.10;99.90;;;;;;4955207;28;20051;-76
2022/11/13 12:45:17;;;;;;;12.50;10.35;;;12.10;99.90;;;;;;4982413;28;20113;-77
2022/11/13 12:47:43;;;;;;;13.23;10.40;;;12.20;99.90;;;;;;4960996;28;20558;-78
2022/11/13 12:50:28;;;;;;;12.38;10.05;;;12.20;99.90;;;;;;4989281;28;20062;-77